KBOI/BOI METAR and TAF weather

Enter ICAO airport designator
Station Type Date Time Source
KBOI METAR 2019/02/23 01:53 UTC NOAA

KBOI 230153Z 12009KT 10SM FEW110 M02/M08 A3005 RMK AO2 SLP208 T10221083


Station Type Date Time Source
KBOI Decoded METAR 2019/02/23 01:53 UTC NOAA

BOISE AIR TERMINAL, ID, United States (KBOI) 43-34N 116-14W 875M
Feb 22, 2019 - 08:53 PM EST / 2019.02.23 0153 UTC
Wind: from the ESE (120 degrees) at 10 MPH (9 KT):0
Visibility: 10 mile(s):0
Sky conditions: mostly clear
Temperature: 28.0 F (-2.2 C)
Windchill: 19 F (-7 C):1
Dew Point: 17.1 F (-8.3 C)
Relative Humidity: 62%
Pressure (altimeter): 30.05 in. Hg (1017 hPa)
ob: KBOI 230153Z 12009KT 10SM FEW110 M02/M08 A3005 RMK AO2 SLP208 T10221083
cycle: 2

Station Type Date Time Source
KBOI TAF 2019/02/22 18:39 UTC NOAA

TAF KBOI 221736Z 2218/2318 VRB05KT P6SM BKN250
FM230400 13010KT P6SM OVC080
FM230900 13010KT P6SM VCSH BKN040 OVC070
FM231600 12010KT 5SM -SN OVC025


Example: see airport list